Time;durP1;ratioP1;P1;durP2;ratioP2;P2;SDS_P1;SDS_P2;PMS_P1;PMS_P2;Temp;Humidity;BMP_temperature;BMP_pressure;BME280_temperature;BME280_humidity;BME280_pressure;Samples;Min_cycle;Max_cycle;Signal;HPM_P1;HPM_P2
2021/10/15 00:00:36;;;;;;;29.52;20.65;;;12.50;99.90;;;;;;5069617;28;20040;-45
2021/10/15 00:03:02;;;;;;;30.15;19.13;;;12.50;99.90;;;;;;5070126;28;20037;-46
2021/10/15 00:05:31;;;;;;;29.63;20.52;;;12.60;99.90;;;;;;5069854;28;20045;-48
2021/10/15 00:07:56;;;;;;;27.10;19.08;;;12.50;99.90;;;;;;5069643;28;20037;-46
2021/10/15 00:10:22;;;;;;;27.02;17.50;;;12.50;99.90;;;;;;5069664;28;20398;-49
2021/10/15 00:12:48;;;;;;;26.17;18.15;;;12.50;99.90;;;;;;5050742;28;20029;-46
2021/10/15 00:15:13;;;;;;;25.52;17.80;;;12.40;99.90;;;;;;5069493;28;20028;-46
2021/10/15 00:17:39;;;;;;;25.13;17.55;;;12.40;99.90;;;;;;5069604;28;20043;-48
2021/10/15 00:20:06;;;;;;;23.20;16.75;;;12.40;99.90;;;;;;5052049;28;20029;-46
2021/10/15 00:22:32;;;;;;;24.95;17.75;;;12.40;99.90;;;;;;5070165;28;20572;-46
2021/10/15 00:24:57;;;;;;;24.30;17.35;;;12.40;99.90;;;;;;5052007;28;20044;-46
2021/10/15 00:27:23;;;;;;;23.75;16.35;;;12.30;99.90;;;;;;5051192;28;20036;-46
2021/10/15 00:29:48;;;;;;;24.48;16.25;;;12.30;99.90;;;;;;5069292;28;20047;-47
2021/10/15 00:32:14;;;;;;;24.15;15.77;;;12.30;99.90;;;;;;5069463;28;20508;-46
2021/10/15 00:34:39;;;;;;;22.05;15.80;;;12.30;99.90;;;;;;5068975;28;20386;-46
2021/10/15 00:37:05;;;;;;;22.77;15.88;;;12.30;99.90;;;;;;5068724;28;20028;-45
2021/10/15 00:39:31;;;;;;;20.48;14.75;;;12.30;99.90;;;;;;5069358;28;20043;-46
2021/10/15 00:41:56;;;;;;;22.08;15.73;;;12.40;99.90;;;;;;5069150;28;20032;-45
2021/10/15 00:44:22;;;;;;;21.33;14.65;;;12.30;99.90;;;;;;5069329;28;20055;-47
2021/10/15 00:46:48;;;;;;;20.10;14.20;;;12.40;99.90;;;;;;5069235;28;20037;-46
2021/10/15 00:49:15;;;;;;;16.38;11.93;;;12.40;99.90;;;;;;5068692;28;20028;-46
2021/10/15 00:51:42;;;;;;;16.83;12.57;;;12.40;99.90;;;;;;5069166;28;20036;-46
2021/10/15 00:54:11;;;;;;;18.60;12.85;;;12.40;99.90;;;;;;5069071;28;20474;-47
2021/10/15 00:56:37;;;;;;;17.83;12.35;;;12.50;99.90;;;;;;5069418;28;20124;-47
2021/10/15 00:59:02;;;;;;;18.98;12.18;;;12.40;99.90;;;;;;5067874;28;20124;-46
2021/10/15 01:01:28;;;;;;;16.15;11.38;;;12.40;99.90;;;;;;5068687;28;20098;-46
2021/10/15 01:03:58;;;;;;;18.75;12.68;;;12.50;99.90;;;;;;5069056;28;20044;-46
2021/10/15 01:06:23;;;;;;;19.25;11.60;;;12.50;99.90;;;;;;5068933;28;20044;-47
2021/10/15 01:08:49;;;;;;;17.27;11.05;;;12.50;99.90;;;;;;5068279;28;20040;-46
2021/10/15 01:11:16;;;;;;;13.98;11.27;;;12.50;99.90;;;;;;5050757;28;20037;-46
2021/10/15 01:13:42;;;;;;;16.83;11.43;;;12.50;99.90;;;;;;5068261;28;20253;-45
2021/10/15 01:16:10;;;;;;;15.32;11.02;;;12.50;99.90;;;;;;5068755;28;20441;-46
2021/10/15 01:18:37;;;;;;;20.17;11.00;;;12.50;99.90;;;;;;5050164;28;20466;-48
2021/10/15 01:21:05;;;;;;;16.90;10.82;;;12.50;99.90;;;;;;5068596;28;20033;-47
2021/10/15 01:23:30;;;;;;;11.88;9.43;;;12.50;99.90;;;;;;5068662;28;20101;-47
2021/10/15 01:25:56;;;;;;;17.58;10.00;;;12.50;99.90;;;;;;5068644;28;20441;-45
2021/10/15 01:28:23;;;;;;;14.32;9.35;;;12.50;99.90;;;;;;5068159;28;20037;-46
2021/10/15 01:30:49;;;;;;;16.45;10.38;;;12.50;99.90;;;;;;5068465;28;20115;-46
2021/10/15 01:33:15;;;;;;;14.27;9.93;;;12.50;99.90;;;;;;5068694;28;20127;-46
2021/10/15 01:35:41;;;;;;;14.18;10.05;;;12.60;99.90;;;;;;5068818;28;20032;-46
2021/10/15 01:38:07;;;;;;;14.18;9.55;;;12.60;99.90;;;;;;5068301;28;20398;-47
2021/10/15 01:40:32;;;;;;;11.70;9.07;;;12.50;99.90;;;;;;5068684;28;20037;-46
2021/10/15 01:42:58;;;;;;;12.90;9.23;;;12.60;99.90;;;;;;5068402;28;20036;-48
2021/10/15 01:45:26;;;;;;;12.48;8.07;;;12.60;99.90;;;;;;5067611;28;20224;-46
2021/10/15 01:47:52;;;;;;;12.30;8.57;;;12.60;99.90;;;;;;5067975;28;20037;-45
2021/10/15 01:50:19;;;;;;;13.88;8.02;;;12.50;99.90;;;;;;5068639;28;20044;-45
2021/10/15 01:52:45;;;;;;;12.52;9.07;;;12.60;99.90;;;;;;5068347;28;20520;-44
2021/10/15 01:55:11;;;;;;;14.80;9.23;;;12.50;99.90;;;;;;5068314;28;20037;-44
2021/10/15 01:57:37;;;;;;;12.93;8.48;;;12.60;99.90;;;;;;5067843;28;20355;-45
2021/10/15 02:00:04;;;;;;;12.40;8.88;;;12.60;99.90;;;;;;5068106;28;20040;-45
2021/10/15 02:02:30;;;;;;;10.27;8.48;;;12.60;99.90;;;;;;5068266;28;20032;-45
2021/10/15 02:04:55;;;;;;;13.10;8.70;;;12.50;99.90;;;;;;5068396;28;20025;-45
2021/10/15 02:07:21;;;;;;;15.05;8.80;;;12.50;99.90;;;;;;5067552;28;20046;-45
2021/10/15 02:09:46;;;;;;;10.95;8.02;;;12.50;99.90;;;;;;5068072;28;20043;-45
2021/10/15 02:12:12;;;;;;;16.02;8.88;;;12.50;99.90;;;;;;5067108;28;20036;-44
2021/10/15 02:14:37;;;;;;;12.70;8.27;;;12.50;99.90;;;;;;5068000;28;20124;-45
2021/10/15 02:17:03;;;;;;;14.25;9.43;;;12.50;99.90;;;;;;5067521;28;20090;-44
2021/10/15 02:19:29;;;;;;;12.50;9.10;;;12.50;99.90;;;;;;5067975;28;20761;-45
2021/10/15 02:21:55;;;;;;;15.98;8.27;;;12.50;99.90;;;;;;5049874;28;20032;-45
2021/10/15 02:24:20;;;;;;;11.10;7.53;;;12.50;99.90;;;;;;5067938;28;20450;-45
2021/10/15 02:26:46;;;;;;;14.98;8.00;;;12.50;99.90;;;;;;5067967;28;20436;-45
2021/10/15 02:29:11;;;;;;;12.20;7.65;;;12.50;99.90;;;;;;5067342;28;20425;-47
2021/10/15 02:31:37;;;;;;;11.02;7.88;;;12.50;99.90;;;;;;5067745;28;20195;-47
2021/10/15 02:34:02;;;;;;;14.07;7.50;;;12.50;99.90;;;;;;5067848;28;20041;-47
2021/10/15 02:36:28;;;;;;;15.55;7.88;;;12.50;99.90;;;;;;5067841;28;20024;-45
2021/10/15 02:38:54;;;;;;;10.85;7.43;;;12.50;99.90;;;;;;5067325;28;20497;-47
2021/10/15 02:41:20;;;;;;;9.70;6.95;;;12.50;99.90;;;;;;5067448;28;20486;-46
2021/10/15 02:43:45;;;;;;;11.55;7.18;;;12.50;99.90;;;;;;5067567;28;20074;-46
2021/10/15 02:46:15;;;;;;;11.93;8.10;;;12.50;99.90;;;;;;5067890;28;20032;-48
2021/10/15 02:48:41;;;;;;;13.82;7.35;;;12.50;99.90;;;;;;5067217;28;20189;-46
2021/10/15 02:51:06;;;;;;;12.95;6.95;;;12.50;99.90;;;;;;5067700;28;20040;-46
2021/10/15 02:53:32;;;;;;;8.85;6.78;;;12.50;99.90;;;;;;5049819;28;20440;-46
2021/10/15 02:55:57;;;;;;;14.88;8.25;;;12.50;99.90;;;;;;5049781;28;20032;-44
2021/10/15 02:58:23;;;;;;;9.13;6.75;;;12.50;99.90;;;;;;5070645;28;20064;-46
2021/10/15 03:00:50;;;;;;;9.40;6.22;;;12.50;99.90;;;;;;5071347;28;20119;-44
2021/10/15 03:03:16;;;;;;;8.90;6.13;;;12.50;99.90;;;;;;5071173;28;20025;-46
2021/10/15 03:05:42;;;;;;;13.38;6.75;;;12.50;99.90;;;;;;5071055;28;20486;-48
2021/10/15 03:08:08;;;;;;;9.48;6.43;;;12.40;99.90;;;;;;5069753;28;20108;-46
2021/10/15 03:10:33;;;;;;;9.98;6.18;;;12.50;99.90;;;;;;5070878;28;20070;-47
2021/10/15 03:12:59;;;;;;;12.75;7.05;;;12.40;99.90;;;;;;5052115;28;20033;-45
2021/10/15 03:15:24;;;;;;;11.23;7.28;;;12.50;99.90;;;;;;5070708;28;20358;-45
2021/10/15 03:17:50;;;;;;;9.27;5.95;;;12.50;99.90;;;;;;5069975;28;20032;-46
2021/10/15 03:20:16;;;;;;;12.35;7.20;;;12.50;99.90;;;;;;5070428;28;20039;-45
2021/10/15 03:22:41;;;;;;;11.60;6.80;;;12.40;99.90;;;;;;5074163;28;20064;-45
2021/10/15 03:25:07;;;;;;;16.30;7.03;;;12.40;99.90;;;;;;5070440;28;20135;-46
2021/10/15 03:27:33;;;;;;;11.27;7.60;;;12.40;99.90;;;;;;5069727;28;20102;-45
2021/10/15 03:29:58;;;;;;;9.35;6.07;;;12.40;99.90;;;;;;5070938;28;20086;-45
2021/10/15 03:32:24;;;;;;;8.98;5.88;;;12.40;99.90;;;;;;5070455;28;20254;-46
2021/10/15 03:34:49;;;;;;;11.40;6.15;;;12.40;99.90;;;;;;5071111;28;20033;-46
2021/10/15 03:37:15;;;;;;;8.15;6.28;;;12.40;99.90;;;;;;5069940;28;20036;-45
2021/10/15 03:39:40;;;;;;;14.25;7.18;;;12.40;99.90;;;;;;5070429;28;20055;-47
2021/10/15 03:42:06;;;;;;;13.10;6.80;;;12.40;99.90;;;;;;5052093;28;20505;-47
2021/10/15 03:44:31;;;;;;;9.57;6.10;;;12.50;99.90;;;;;;5070536;28;20029;-45
2021/10/15 03:46:57;;;;;;;14.38;6.75;;;12.50;99.90;;;;;;5070258;28;20028;-45
2021/10/15 03:49:22;;;;;;;8.55;5.85;;;12.50;99.90;;;;;;5070160;28;20359;-45
2021/10/15 03:51:48;;;;;;;9.20;5.55;;;12.50;99.90;;;;;;5070408;28;20546;-45
2021/10/15 03:54:13;;;;;;;12.32;5.85;;;12.50;99.90;;;;;;5069958;28;20033;-44
2021/10/15 03:56:39;;;;;;;10.30;6.20;;;12.50;99.90;;;;;;5069972;28;20036;-45
2021/10/15 03:59:04;;;;;;;11.82;6.13;;;12.50;99.90;;;;;;5051714;28;20144;-47
2021/10/15 04:01:30;;;;;;;12.40;5.72;;;12.50;99.90;;;;;;5070184;28;20101;-46
2021/10/15 04:03:55;;;;;;;10.38;6.95;;;12.50;99.90;;;;;;5051404;28;20043;-44
2021/10/15 04:06:21;;;;;;;13.00;7.25;;;12.50;99.90;;;;;;5070336;28;20044;-48
2021/10/15 04:08:46;;;;;;;12.18;6.72;;;12.50;99.90;;;;;;5068697;28;20086;-46
2021/10/15 04:11:12;;;;;;;8.82;6.40;;;12.50;99.90;;;;;;5069469;28;20514;-46
2021/10/15 04:13:37;;;;;;;16.52;8.48;;;12.50;99.90;;;;;;5051153;28;20200;-45
2021/10/15 04:16:04;;;;;;;11.45;6.80;;;12.50;99.90;;;;;;5069764;28;20020;-46
2021/10/15 04:18:29;;;;;;;12.32;7.75;;;12.50;99.90;;;;;;5069030;28;20221;-46
2021/10/15 04:20:55;;;;;;;12.32;7.90;;;12.50;99.90;;;;;;5069893;28;20029;-46
2021/10/15 04:23:21;;;;;;;13.07;8.20;;;12.40;99.90;;;;;;5069618;28;20521;-45
2021/10/15 04:25:46;;;;;;;15.23;8.05;;;12.40;99.90;;;;;;5069637;28;20036;-45
2021/10/15 04:28:12;;;;;;;16.00;8.82;;;12.50;99.90;;;;;;5069129;28;20094;-45
2021/10/15 04:30:37;;;;;;;15.82;8.88;;;12.50;99.90;;;;;;5069965;28;20041;-45
2021/10/15 04:33:03;;;;;;;14.82;8.88;;;12.50;99.90;;;;;;5069627;28;20418;-46
2021/10/15 04:35:29;;;;;;;20.63;8.45;;;12.50;99.90;;;;;;5069677;28;20115;-45
2021/10/15 04:37:54;;;;;;;15.35;8.65;;;12.50;99.90;;;;;;5068735;28;20110;-47
2021/10/15 04:40:20;;;;;;;14.02;8.48;;;12.50;99.90;;;;;;5069295;28;20032;-48
2021/10/15 04:42:46;;;;;;;13.43;8.25;;;12.50;99.90;;;;;;5069011;28;20375;-46
2021/10/15 04:45:12;;;;;;;12.05;7.88;;;12.50;99.90;;;;;;5069066;28;20032;-47
2021/10/15 04:47:39;;;;;;;16.58;8.02;;;12.50;99.90;;;;;;5068529;28;20387;-48
2021/10/15 04:50:05;;;;;;;17.83;8.45;;;12.60;99.90;;;;;;5069293;28;20040;-45
2021/10/15 04:52:31;;;;;;;16.88;8.23;;;12.60;99.90;;;;;;5069023;28;20041;-45
2021/10/15 04:54:56;;;;;;;12.88;7.75;;;12.60;99.90;;;;;;5051253;28;20051;-46
2021/10/15 04:57:22;;;;;;;12.20;8.18;;;12.60;99.90;;;;;;5068189;28;20040;-47
2021/10/15 04:59:48;;;;;;;15.45;8.65;;;12.60;99.90;;;;;;5068896;28;20498;-47
2021/10/15 05:02:13;;;;;;;14.50;7.80;;;12.60;99.90;;;;;;5069407;28;20028;-47
2021/10/15 05:04:40;;;;;;;15.63;7.80;;;12.60;99.90;;;;;;5068963;28;20055;-46
2021/10/15 05:07:06;;;;;;;14.35;8.38;;;12.50;99.90;;;;;;5068579;28;20451;-46
2021/10/15 05:11:57;;;;;;;16.52;8.32;;;12.60;99.90;;;;;;5068042;28;20124;-46
2021/10/15 05:14:23;;;;;;;17.48;8.38;;;12.60;99.90;;;;;;5068539;28;20551;-46
2021/10/15 05:16:52;;;;;;;17.80;7.65;;;12.50;99.90;;;;;;5068628;28;20123;-46
2021/10/15 05:19:17;;;;;;;14.50;7.80;;;12.60;99.90;;;;;;5068020;28;20108;-46
2021/10/15 05:21:43;;;;;;;13.70;7.95;;;12.60;99.90;;;;;;5068562;28;20108;-46
2021/10/15 05:24:08;;;;;;;18.02;7.57;;;12.60;99.90;;;;;;5068517;28;20090;-47
2021/10/15 05:26:34;;;;;;;15.77;7.13;;;12.60;99.90;;;;;;5068263;28;20033;-46
2021/10/15 05:28:59;;;;;;;15.30;7.97;;;12.60;99.90;;;;;;5049884;28;20493;-48
2021/10/15 05:31:25;;;;;;;11.43;7.05;;;12.60;99.90;;;;;;5068483;28;20110;-46
2021/10/15 05:33:50;;;;;;;10.65;7.03;;;12.60;99.90;;;;;;5068371;28;20071;-46
2021/10/15 05:36:16;;;;;;;12.38;6.63;;;12.60;99.90;;;;;;5068334;28;20097;-46
2021/10/15 05:38:41;;;;;;;12.27;6.55;;;12.50;99.90;;;;;;5067790;28;20043;-46
2021/10/15 05:41:07;;;;;;;13.65;6.70;;;12.50;99.90;;;;;;5068186;28;20032;-47
2021/10/15 05:43:32;;;;;;;12.77;6.90;;;12.60;99.90;;;;;;5067967;28;20610;-47
2021/10/15 05:45:58;;;;;;;12.38;6.28;;;12.60;99.90;;;;;;5068410;28;20036;-46
2021/10/15 05:48:24;;;;;;;14.57;6.68;;;12.60;99.90;;;;;;5049779;28;20120;-48
2021/10/15 05:50:50;;;;;;;13.88;5.55;;;12.60;99.90;;;;;;5068778;28;20082;-46
2021/10/15 05:53:18;;;;;;;13.18;5.90;;;12.60;99.90;;;;;;5068371;28;20482;-48
2021/10/15 06:01:09;;;;;;;10.40;6.07;;;12.60;99.90;;;;;;5067891;28;20683;-47
2021/10/15 06:03:35;;;;;;;9.13;5.18;;;12.60;99.90;;;;;;5050542;28;20036;-45
2021/10/15 06:16:30;;;;;;;12.02;5.32;;;12.50;99.90;;;;;;5068176;28;20044;-47
2021/10/15 06:19:07;;;;;;;9.82;4.60;;;12.60;99.90;;;;;;5049875;28;20471;-45
2021/10/15 06:21:33;;;;;;;11.07;5.20;;;12.50;99.90;;;;;;5067865;28;20033;-46
2021/10/15 06:23:59;;;;;;;24.55;5.53;;;12.60;99.90;;;;;;5068006;28;20032;-46
2021/10/15 06:26:24;;;;;;;7.38;4.65;;;12.60;99.90;;;;;;5067762;28;20186;-46
2021/10/15 06:28:50;;;;;;;9.23;5.10;;;12.60;99.90;;;;;;5067343;28;20052;-45
2021/10/15 06:31:15;;;;;;;6.88;4.32;;;12.60;99.90;;;;;;5068615;28;20041;-48
2021/10/15 06:33:41;;;;;;;7.80;4.63;;;12.60;99.90;;;;;;5071731;28;20107;-46
2021/10/15 06:36:07;;;;;;;10.80;5.07;;;12.60;99.90;;;;;;5071707;28;20093;-48
2021/10/15 06:38:32;;;;;;;7.90;5.35;;;12.60;99.90;;;;;;5071073;28;20056;-46
2021/10/15 06:40:58;;;;;;;8.32;4.53;;;12.50;99.90;;;;;;5071701;28;20086;-47
2021/10/15 06:43:24;;;;;;;8.07;4.53;;;12.60;99.90;;;;;;5071419;28;20071;-46
2021/10/15 06:45:50;;;;;;;8.73;4.97;;;12.60;99.90;;;;;;5053476;28;20024;-46
2021/10/15 06:48:16;;;;;;;8.30;4.85;;;12.50;99.90;;;;;;5052900;28;20055;-47
2021/10/15 06:50:41;;;;;;;10.48;4.93;;;12.50;99.90;;;;;;5071609;28;20044;-46
2021/10/15 06:53:09;;;;;;;8.55;5.10;;;12.50;99.90;;;;;;5071570;28;20457;-46
2021/10/15 06:55:34;;;;;;;8.55;4.75;;;12.50;99.90;;;;;;5053708;28;20391;-45
2021/10/15 06:58:00;;;;;;;11.23;5.32;;;12.60;99.90;;;;;;5070486;28;20056;-46
2021/10/15 07:00:26;;;;;;;8.40;4.88;;;12.60;99.90;;;;;;5070931;28;20041;-46
2021/10/15 07:02:51;;;;;;;10.25;4.25;;;12.60;99.90;;;;;;5071419;28;20032;-46
2021/10/15 07:05:17;;;;;;;6.90;4.68;;;12.70;99.90;;;;;;5071248;28;20040;-46
2021/10/15 07:07:42;;;;;;;9.07;4.55;;;12.70;99.90;;;;;;5070430;28;20115;-46
2021/10/15 07:10:09;;;;;;;9.48;4.70;;;12.70;99.90;;;;;;5071018;28;20123;-46
2021/10/15 07:12:43;;;;;;;8.70;4.82;;;12.80;99.90;;;;;;5051919;28;20481;-49
2021/10/15 07:15:10;;;;;;;5.78;3.97;;;12.80;99.90;;;;;;5071070;28;20087;-45
2021/10/15 07:17:37;;;;;;;6.90;4.30;;;12.80;99.90;;;;;;5070457;28;20585;-47
2021/10/15 07:20:03;;;;;;;7.75;4.25;;;12.90;99.90;;;;;;5071310;28;20098;-46
2021/10/15 07:22:29;;;;;;;7.43;3.67;;;13.00;99.90;;;;;;5070775;28;20462;-46
2021/10/15 07:24:55;;;;;;;8.93;4.18;;;13.10;99.90;;;;;;5071099;28;20044;-46
2021/10/15 07:27:20;;;;;;;7.18;3.63;;;13.10;99.90;;;;;;5069951;28;20054;-46
2021/10/15 07:29:46;;;;;;;5.85;4.05;;;13.10;99.90;;;;;;5070783;28;20032;-46
2021/10/15 07:32:11;;;;;;;6.28;3.53;;;13.10;99.90;;;;;;5070270;28;20039;-46
2021/10/15 07:34:37;;;;;;;7.93;3.85;;;13.20;99.90;;;;;;5070443;28;20043;-48
2021/10/15 07:37:03;;;;;;;9.13;4.20;;;13.10;99.90;;;;;;5069724;28;20020;-45
2021/10/15 07:39:28;;;;;;;7.50;3.65;;;13.10;99.90;;;;;;5070434;28;20043;-45
2021/10/15 07:41:54;;;;;;;8.63;3.78;;;13.10;99.90;;;;;;5069583;28;20036;-48
2021/10/15 07:44:19;;;;;;;5.95;3.65;;;13.00;99.90;;;;;;5051332;28;20064;-46
2021/10/15 07:46:45;;;;;;;6.13;3.55;;;13.00;99.90;;;;;;5070412;28;20478;-46
2021/10/15 07:49:10;;;;;;;7.88;4.30;;;13.00;99.90;;;;;;5069821;28;20025;-45
2021/10/15 07:51:36;;;;;;;6.50;4.50;;;13.10;99.90;;;;;;5070473;28;20114;-47
2021/10/15 07:54:03;;;;;;;8.38;3.85;;;13.30;99.90;;;;;;5069549;28;20043;-49
2021/10/15 07:56:29;;;;;;;6.70;3.63;;;13.40;99.90;;;;;;5070073;28;20033;-45
2021/10/15 07:58:54;;;;;;;7.55;3.88;;;13.50;99.90;;;;;;5069091;28;20130;-47
2021/10/15 08:01:20;;;;;;;6.63;3.63;;;13.50;99.90;;;;;;5070008;28;20403;-46
2021/10/15 08:03:47;;;;;;;6.93;3.67;;;13.60;99.90;;;;;;5069479;28;20461;-49
2021/10/15 08:06:12;;;;;;;7.05;3.75;;;13.70;99.90;;;;;;5069646;28;20040;-46
2021/10/15 08:08:38;;;;;;;10.30;4.10;;;13.70;99.90;;;;;;5068980;28;20033;-48
2021/10/15 08:11:04;;;;;;;5.85;3.28;;;13.70;99.90;;;;;;5069798;28;20050;-46
2021/10/15 08:13:30;;;;;;;8.23;4.07;;;13.90;99.90;;;;;;5068135;28;20028;-45
2021/10/15 08:15:55;;;;;;;10.02;3.97;;;13.90;99.90;;;;;;5069833;28;20030;-46
2021/10/15 08:18:21;;;;;;;7.28;4.32;;;13.90;99.90;;;;;;5069336;28;20020;-46
2021/10/15 08:20:46;;;;;;;6.82;3.80;;;13.90;99.90;;;;;;5070008;28;20032;-46
2021/10/15 08:23:12;;;;;;;10.60;4.30;;;13.80;99.90;;;;;;5069899;28;20486;-47
2021/10/15 08:25:39;;;;;;;11.43;4.95;;;13.90;99.90;;;;;;5069767;28;20028;-46
2021/10/15 08:28:05;;;;;;;6.80;3.33;;;14.00;99.90;;;;;;5069258;28;20036;-49
2021/10/15 08:30:30;;;;;;;7.43;4.15;;;14.00;99.90;;;;;;5069399;28;20127;-45
2021/10/15 08:32:56;;;;;;;10.52;5.00;;;13.90;99.90;;;;;;5069470;28;20059;-46
2021/10/15 08:35:22;;;;;;;10.82;4.05;;;13.80;99.90;;;;;;5069283;28;20089;-46
2021/10/15 08:37:49;;;;;;;10.80;4.05;;;13.80;99.90;;;;;;5068939;28;20064;-46
2021/10/15 08:40:14;;;;;;;12.70;4.38;;;13.70;99.90;;;;;;5069482;28;20170;-48
2021/10/15 08:42:47;;;;;;;7.93;3.88;;;13.60;99.90;;;;;;5051347;28;20119;-45
2021/10/15 08:45:14;;;;;;;9.93;4.03;;;13.50;99.90;;;;;;5068878;28;20029;-46
2021/10/15 08:47:40;;;;;;;12.20;4.63;;;13.50;99.90;;;;;;5068588;28;20025;-46
2021/10/15 08:50:06;;;;;;;6.47;3.78;;;13.50;99.90;;;;;;5069390;28;20474;-46
2021/10/15 08:52:32;;;;;;;8.95;4.50;;;13.40;99.90;;;;;;5069570;28;20086;-46
2021/10/15 08:54:58;;;;;;;9.93;3.85;;;13.40;99.90;;;;;;5068987;28;20530;-45
2021/10/15 08:57:23;;;;;;;8.73;4.70;;;13.50;99.90;;;;;;5068952;28;20035;-46
2021/10/15 08:59:50;;;;;;;6.90;3.60;;;13.40;99.90;;;;;;5069051;28;20519;-46
2021/10/15 09:02:21;;;;;;;9.07;4.13;;;13.50;99.90;;;;;;5069150;28;20540;-45
2021/10/15 09:04:49;;;;;;;;;;;13.60;99.90;;;;;;5069383;28;20040;-45
2021/10/15 09:07:16;;;;;;;11.85;4.53;;;13.50;99.90;;;;;;5068349;28;19935;-45
2021/10/15 09:09:42;;;;;;;13.65;4.25;;;13.50;99.90;;;;;;5068874;28;20450;-46
2021/10/15 09:12:10;;;;;;;11.25;4.78;;;13.40;99.90;;;;;;5068037;28;20042;-48
2021/10/15 09:14:37;;;;;;;9.90;5.50;;;13.20;99.90;;;;;;5065769;28;20091;-48
2021/10/15 09:17:08;;;;;;;11.45;6.25;;;13.00;99.90;;;;;;5085677;28;20013;-46
2021/10/15 09:19:41;;;;;;;11.40;6.38;;;12.70;99.90;;;;;;5084489;28;20063;-48
2021/10/15 09:22:17;;;;;;;10.07;6.00;;;12.50;99.90;;;;;;5064353;28;20497;-48
2021/10/15 09:25:07;;;;;;;13.45;6.90;;;12.40;99.90;;;;;;5066666;28;20072;-49
2021/10/15 09:27:44;;;;;;;18.50;8.15;;;12.20;99.90;;;;;;5054137;28;20029;-48
2021/10/15 09:30:13;;;;;;;14.88;7.60;;;12.10;99.90;;;;;;5045871;28;20032;-46
2021/10/15 09:32:45;;;;;;;16.40;8.60;;;12.10;99.90;;;;;;5047895;28;20487;-46
2021/10/15 09:35:13;;;;;;;15.68;9.45;;;12.00;99.90;;;;;;5042141;28;20048;-47
2021/10/15 09:37:41;;;;;;;20.75;10.05;;;12.00;99.90;;;;;;5027634;28;20711;-49
2021/10/15 09:40:06;;;;;;;23.25;9.88;;;11.90;99.90;;;;;;5062271;28;20329;-49
2021/10/15 09:42:34;;;;;;;18.67;10.85;;;11.90;99.90;;;;;;5063553;28;20467;-47
2021/10/15 09:45:15;;;;;;;20.88;11.80;;;11.90;99.90;;;;;;5067240;28;20028;-46
2021/10/15 09:47:52;;;;;;;19.58;12.05;;;11.80;99.90;;;;;;5066261;28;20437;-48
2021/10/15 09:50:39;;;;;;;19.75;11.23;;;11.80;99.90;;;;;;5067724;28;20024;-45
2021/10/15 09:53:05;;;;;;;19.00;11.90;;;11.80;99.90;;;;;;5049033;28;20040;-46
2021/10/15 09:55:43;;;;;;;10.98;7.35;;;11.80;99.90;;;;;;5067610;28;20325;-46
2021/10/15 09:58:08;;;;;;;8.98;5.68;;;11.70;99.90;;;;;;5066993;28;20029;-46
2021/10/15 10:00:34;;;;;;;6.10;4.43;;;11.70;99.90;;;;;;5067518;28;20043;-46
2021/10/15 10:03:00;;;;;;;6.90;4.75;;;11.60;99.90;;;;;;5067851;28;20070;-46
2021/10/15 10:05:26;;;;;;;7.53;3.15;;;11.60;99.90;;;;;;5067897;28;20041;-46
2021/10/15 10:07:53;;;;;;;4.03;2.75;;;11.50;99.90;;;;;;5052627;28;20039;-45
2021/10/15 10:10:22;;;;;;;6.43;2.60;;;11.40;99.90;;;;;;5053813;28;20040;-46
2021/10/15 10:12:49;;;;;;;3.47;2.75;;;11.50;99.90;;;;;;5070341;28;20126;-47
2021/10/15 10:15:17;;;;;;;6.13;2.25;;;11.50;99.90;;;;;;5071702;28;20036;-46
2021/10/15 10:17:57;;;;;;;4.38;2.17;;;11.50;99.90;;;;;;5052916;28;20032;-46
2021/10/15 10:20:30;;;;;;;2.00;1.60;;;11.50;99.90;;;;;;5071861;28;20040;-46
2021/10/15 10:23:05;;;;;;;3.67;1.77;;;11.60;99.90;;;;;;5071764;28;20207;-47
2021/10/15 10:25:31;;;;;;;2.33;1.92;;;11.60;99.90;;;;;;5071269;28;20291;-45
2021/10/15 10:28:09;;;;;;;4.50;2.40;;;11.60;99.90;;;;;;5070432;28;20045;-46
2021/10/15 10:30:37;;;;;;;2.35;1.90;;;11.60;99.90;;;;;;5070159;28;20518;-49
2021/10/15 10:33:04;;;;;;;5.82;1.63;;;11.60;99.90;;;;;;5071433;28;20243;-46
2021/10/15 10:35:30;;;;;;;2.85;1.73;;;11.60;99.90;;;;;;5070970;28;20033;-46
2021/10/15 10:38:20;;;;;;;6.43;2.10;;;11.60;99.90;;;;;;5070804;28;20048;-46
2021/10/15 10:41:01;;;;;;;3.38;2.10;;;11.50;99.90;;;;;;5070543;28;20036;-47
2021/10/15 10:43:30;;;;;;;5.55;2.42;;;11.50;99.90;;;;;;5066458;28;20104;-46
2021/10/15 10:46:08;;;;;;;4.22;2.05;;;11.60;99.90;;;;;;5052929;28;20509;-47
2021/10/15 10:48:49;;;;;;;6.18;2.75;;;11.40;99.90;;;;;;5071031;28;20028;-49
2021/10/15 10:51:23;;;;;;;2.97;1.85;;;11.40;99.90;;;;;;5072408;28;20102;-46
2021/10/15 10:54:03;;;;;;;3.83;1.42;;;11.40;99.90;;;;;;5072078;28;20043;-46
2021/10/15 10:56:41;;;;;;;2.92;2.08;;;11.30;99.90;;;;;;5072476;28;20029;-46
2021/10/15 10:59:16;;;;;;;5.50;1.52;;;11.30;99.90;;;;;;5071902;28;20499;-46
2021/10/15 11:01:53;;;;;;;2.03;1.40;;;11.20;99.90;;;;;;5072176;28;20059;-46
2021/10/15 11:04:35;;;;;;;4.47;1.50;;;11.20;99.90;;;;;;5079216;28;20489;-47
2021/10/15 11:07:04;;;;;;;2.67;1.40;;;11.20;99.90;;;;;;5089815;28;20059;-49
2021/10/15 11:09:49;;;;;;;1.95;1.40;;;11.30;99.90;;;;;;5090061;28;20040;-47
2021/10/15 11:12:28;;;;;;;3.38;1.35;;;11.30;99.90;;;;;;5062571;28;20294;-46
2021/10/15 11:15:10;;;;;;;1.85;1.10;;;11.20;99.90;;;;;;5069544;28;20032;-46
2021/10/15 11:17:38;;;;;;;1.38;1.25;;;11.20;99.90;;;;;;5068533;28;20029;-46
2021/10/15 11:20:12;;;;;;;3.35;1.20;;;11.20;99.90;;;;;;5069952;28;20027;-46
2021/10/15 11:22:43;;;;;;;2.53;1.30;;;11.10;99.90;;;;;;5069393;28;20067;-45
2021/10/15 11:25:09;;;;;;;;;;;11.10;99.90;;;;;;5070495;28;20074;-46
2021/10/15 11:27:35;;;;;;;2.63;1.77;;;11.00;99.90;;;;;;5069035;28;19915;-48
2021/10/15 11:30:03;;;;;;;1.83;1.48;;;11.00;99.90;;;;;;5070082;28;20058;-47
2021/10/15 11:32:36;;;;;;;2.55;1.38;;;11.00;99.90;;;;;;5068718;28;20027;-46
2021/10/15 11:35:15;;;;;;;3.00;1.40;;;10.90;99.90;;;;;;5069944;28;20032;-46
2021/10/15 11:37:45;;;;;;;1.27;1.00;;;11.00;99.90;;;;;;5050704;28;20398;-46
2021/10/15 11:40:14;;;;;;;4.97;1.23;;;11.00;99.90;;;;;;5069347;28;20521;-48
2021/10/15 11:42:39;;;;;;;2.55;1.30;;;11.00;99.90;;;;;;5068636;28;20636;-47
2021/10/15 11:45:26;;;;;;;3.20;1.40;;;11.00;99.90;;;;;;5069552;28;20047;-47
2021/10/15 11:48:03;;;;;;;1.88;1.13;;;11.10;99.90;;;;;;5067308;28;20844;-47
2021/10/15 11:50:40;;;;;;;2.92;1.10;;;11.10;99.90;;;;;;5069613;28;20036;-49
2021/10/15 11:53:06;;;;;;;3.97;1.42;;;11.20;99.90;;;;;;5051624;28;20224;-48
2021/10/15 11:55:37;;;;;;;1.65;1.00;;;11.20;99.90;;;;;;5049808;28;20029;-47
2021/10/15 11:58:24;;;;;;;6.07;1.45;;;11.30;99.90;;;;;;5067555;28;20093;-46
2021/10/15 12:00:57;;;;;;;2.17;1.17;;;11.40;99.90;;;;;;5068423;28;20132;-46
2021/10/15 12:03:27;;;;;;;3.63;1.40;;;11.60;99.90;;;;;;5069018;28;20039;-47
2021/10/15 12:05:53;;;;;;;2.65;1.33;;;11.90;99.90;;;;;;5068524;28;20153;-46
2021/10/15 12:08:18;;;;;;;2.35;0.82;;;12.20;99.90;;;;;;5068339;28;20576;-47
2021/10/15 12:10:45;;;;;;;1.67;1.10;;;12.70;99.90;;;;;;5068597;28;20457;-46
2021/10/15 12:13:11;;;;;;;3.10;1.38;;;13.00;99.90;;;;;;5068604;28;20045;-47
2021/10/15 12:15:36;;;;;;;3.80;0.90;;;13.20;99.90;;;;;;5068022;28;20028;-48
2021/10/15 12:18:09;;;;;;;2.28;1.20;;;13.20;99.90;;;;;;5049917;28;20040;-47
2021/10/15 12:20:35;;;;;;;2.65;1.10;;;13.30;99.90;;;;;;5068237;28;20020;-49
2021/10/15 12:23:02;;;;;;;3.30;1.35;;;13.40;99.90;;;;;;5069051;28;20031;-47
2021/10/15 12:25:28;;;;;;;2.85;1.10;;;13.60;99.90;;;;;;5070227;28;20090;-46
2021/10/15 12:27:53;;;;;;;2.17;1.00;;;13.70;99.90;;;;;;5069403;28;20040;-49
2021/10/15 12:30:22;;;;;;;2.13;0.80;;;13.90;99.90;;;;;;5087820;28;20024;-46
2021/10/15 12:32:48;;;;;;;3.40;1.15;;;14.50;99.90;;;;;;5069742;28;20032;-49
2021/10/15 12:35:14;;;;;;;2.35;1.10;;;15.10;99.90;;;;;;5088533;28;20035;-47
2021/10/15 12:37:44;;;;;;;3.38;1.00;;;15.70;99.90;;;;;;5087898;28;20130;-49
2021/10/15 12:40:15;;;;;;;2.97;1.10;;;16.10;99.90;;;;;;5088667;28;20056;-50
2021/10/15 12:42:43;;;;;;;2.80;1.17;;;16.30;99.90;;;;;;5063230;28;20032;-47
2021/10/15 12:45:12;;;;;;;2.92;1.13;;;16.40;99.90;;;;;;5067683;28;20028;-46
2021/10/15 12:47:52;;;;;;;4.60;1.10;;;16.60;99.90;;;;;;5072394;28;20075;-47
2021/10/15 12:50:17;;;;;;;7.60;1.13;;;16.60;99.90;;;;;;5068292;28;20086;-46
2021/10/15 12:52:43;;;;;;;5.88;1.45;;;16.60;99.90;;;;;;5049675;28;20032;-46
2021/10/15 12:55:22;;;;;;;3.90;1.10;;;16.70;99.90;;;;;;5050448;28;20063;-47
2021/10/15 12:57:50;;;;;;;5.30;1.40;;;16.80;99.90;;;;;;5066566;28;20025;-50
2021/10/15 13:00:23;;;;;;;6.32;1.35;;;16.90;99.90;;;;;;5067933;28;20382;-47